Glory Ocean — 9VDE7 — position and weather

sailwx.info

Track history (hours):
 
Tides and Currents Weather Stations Pressure Air Temp Water Temp Dewpoint Dewpoint Depression Visibility Wind Speed Wind Dir Waves Ship Positions

Glory Ocean

Last reported at 2017-Jan-19 06:29 UTC. Time now 2017-Jan-19 13:03 UTC.
Position N 36°24' E 014°47'.

Length 139 m; draft 6.3 m.

Type: Cargo ship. MMSI: 564700000.

Date/timePositionNaut miles runAvg speedWind from/ knotsBaromVisibWave heightAir tempDewpointWater temp
2017-Jan-19 06:29N 36°24' E 014°47'1011.2
2017-Jan-19 05:33N 36°25' E 014°35'1111.2
2017-Jan-19 04:33N 36°30' E 014°22'1111.3
2017-Jan-19 03:33N 36°36' E 014°10'1111.1
2017-Jan-19 02:33N 36°42' E 013°58'1111.1
2017-Jan-19 01:33N 36°48' E 013°47'1111.4
2017-Jan-19 00:33N 36°54' E 013°35'15011.4
2017-Jan-18 11:27N 38°00' E 010°46'1011.2
2017-Jan-18 10:33N 38°00' E 010°33'1411.2
2017-Jan-18 09:20N 38°01' E 010°16'  
2017-Jan-11 04:27N 39°22' W 023°55'5912.0
2017-Jan-10 23:33N 39°32' W 025°10'1312.1
2017-Jan-10 22:26N 39°35' W 025°27'1112.4
2017-Jan-10 21:33N 39°37' W 025°41'1212.2
2017-Jan-10 20:33N 39°39' W 025°57'1412.1
2017-Jan-10 19:24N 39°41' W 026°14'1512.1
2017-Jan-10 18:10N 39°44' W 026°34'2111.8
2017-Jan-10 16:21N 39°48' W 027°01'2212.1
2017-Jan-10 14:33N 39°51' W 027°29'2711.9
2017-Jan-10 12:17N 39°53' W 028°04'811.8
2017-Jan-10 11:34N 39°54' W 028°15'1212.0
2017-Jan-10 10:33N 39°56' W 028°31'1212.0
2017-Jan-10 09:33N 39°57' W 028°46'1212.1
2017-Jan-10 08:33N 39°58' W 029°02'1212.1
2017-Jan-10 07:33N 39°59' W 029°17'1212.0
2017-Jan-10 06:34N 40°01' W 029°33'1212.0
2017-Jan-10 05:33N 40°02' W 029°49'1212.0
2017-Jan-10 04:33N 40°03' W 030°04'1212.2
2017-Jan-10 03:33N 40°05' W 030°20'1212.0
2017-Jan-10 02:33N 40°06' W 030°36'1312.1
2017-Jan-10 01:31N 40°07' W 030°52'1212.0
2017-Jan-10 00:32N 40°08' W 031°07'1212.3
2017-Jan-09 23:34N 40°10' W 031°23'1212.3
2017-Jan-09 22:33N 40°11' W 031°39'6612.1
2017-Jan-09 17:04N 40°18' W 033°06'1012.2
2017-Jan-09 16:16N 40°19' W 033°19'  
Track history (hours):
 
Tides and Currents Weather Stations Pressure Air Temp Water Temp Dewpoint Dewpoint Depression Visibility Wind Speed Wind Dir Waves Ship Positions

Glory Ocean

Last reported at 2017-Jan-19 06:29 UTC. Time now 2017-Jan-19 13:03 UTC.
Position N 36°24' E 014°47'.

Length 139 m; draft 6.3 m.

Type: Cargo ship. MMSI: 564700000.

Date/timePositionNaut miles runAvg speedWind from/ knotsBaromVisibWave heightAir tempDewpointWater temp
2017-Jan-19 06:29N 36°24' E 014°47'1011.2
2017-Jan-19 05:33N 36°25' E 014°35'1111.2
2017-Jan-19 04:33N 36°30' E 014°22'1111.3
2017-Jan-19 03:33N 36°36' E 014°10'1111.1
2017-Jan-19 02:33N 36°42' E 013°58'1111.1
2017-Jan-19 01:33N 36°48' E 013°47'1111.4
2017-Jan-19 00:33N 36°54' E 013°35'15011.4
2017-Jan-18 11:27N 38°00' E 010°46'1011.2
2017-Jan-18 10:33N 38°00' E 010°33'1411.2
2017-Jan-18 09:20N 38°01' E 010°16'  
2017-Jan-11 04:27N 39°22' W 023°55'5912.0
2017-Jan-10 23:33N 39°32' W 025°10'1312.1
2017-Jan-10 22:26N 39°35' W 025°27'1112.4
2017-Jan-10 21:33N 39°37' W 025°41'1212.2
2017-Jan-10 20:33N 39°39' W 025°57'1412.1
2017-Jan-10 19:24N 39°41' W 026°14'1512.1
2017-Jan-10 18:10N 39°44' W 026°34'2111.8
2017-Jan-10 16:21N 39°48' W 027°01'2212.1
2017-Jan-10 14:33N 39°51' W 027°29'2711.9
2017-Jan-10 12:17N 39°53' W 028°04'811.8
2017-Jan-10 11:34N 39°54' W 028°15'1212.0
2017-Jan-10 10:33N 39°56' W 028°31'1212.0
2017-Jan-10 09:33N 39°57' W 028°46'1212.1
2017-Jan-10 08:33N 39°58' W 029°02'1212.1
2017-Jan-10 07:33N 39°59' W 029°17'1212.0
2017-Jan-10 06:34N 40°01' W 029°33'1212.0
2017-Jan-10 05:33N 40°02' W 029°49'1212.0
2017-Jan-10 04:33N 40°03' W 030°04'1212.2
2017-Jan-10 03:33N 40°05' W 030°20'1212.0
2017-Jan-10 02:33N 40°06' W 030°36'1312.1
2017-Jan-10 01:31N 40°07' W 030°52'1212.0
2017-Jan-10 00:32N 40°08' W 031°07'1212.3
2017-Jan-09 23:34N 40°10' W 031°23'1212.3
2017-Jan-09 22:33N 40°11' W 031°39'6612.1
2017-Jan-09 17:04N 40°18' W 033°06'1012.2
2017-Jan-09 16:16N 40°19' W 033°19'  

Dump ship's entire track history